createdAt,value
2022-08-26T00:01:31.622Z,71.20
2022-08-26T00:03:03.886Z,71.10
2022-08-26T00:04:36.410Z,71.30
2022-08-26T00:06:09.406Z,71.40
2022-08-26T00:07:44.566Z,71.50
2022-08-26T00:09:16.964Z,71.30
2022-08-26T00:10:49.691Z,71.40
2022-08-26T00:12:21.740Z,71.70
2022-08-26T00:14:08.334Z,71.50
2022-08-26T00:15:41.440Z,71.60
2022-08-26T00:17:13.803Z,71.80
2022-08-26T00:18:45.884Z,71.60
2022-08-26T00:20:22.825Z,72.00
2022-08-26T00:21:54.945Z,72.10
2022-08-26T00:23:28.863Z,72.10
2022-08-26T00:25:01.087Z,72.20
2022-08-26T00:26:34.859Z,72.10
2022-08-26T00:28:07.152Z,72.30
2022-08-26T00:29:39.937Z,72.30
2022-08-26T00:31:12.318Z,72.60
2022-08-26T00:32:46.362Z,72.50
2022-08-26T00:34:19.384Z,72.60
2022-08-26T00:35:52.246Z,72.60
2022-08-26T00:37:25.671Z,72.60
2022-08-26T00:38:58.395Z,72.50
2022-08-26T00:40:34.556Z,72.50
2022-08-26T00:42:07.326Z,72.50
2022-08-26T00:43:47.331Z,72.30
2022-08-26T00:45:20.426Z,72.60
2022-08-26T00:47:01.235Z,72.60
2022-08-26T00:48:35.187Z,72.30
2022-08-26T00:50:12.630Z,72.30
2022-08-26T00:51:49.431Z,72.20
2022-08-26T00:53:27.888Z,72.20
2022-08-26T00:55:16.316Z,72.20
2022-08-26T00:56:59.899Z,72.10
2022-08-26T00:58:34.155Z,72.20
2022-08-26T01:00:12.116Z,72.10
2022-08-26T01:01:46.002Z,72.00
2022-08-26T01:03:22.280Z,71.80
2022-08-26T01:04:58.887Z,72.10
2022-08-26T01:06:32.064Z,72.00
2022-08-26T01:08:04.358Z,72.10
2022-08-26T01:09:39.738Z,72.20
2022-08-26T01:11:12.784Z,72.00
2022-08-26T01:12:53.651Z,72.10
2022-08-26T01:14:29.931Z,71.70
2022-08-26T01:16:05.473Z,71.80
2022-08-26T01:17:41.110Z,71.70
2022-08-26T01:19:23.575Z,71.70
2022-08-26T01:21:16.742Z,71.60
2022-08-26T01:23:03.342Z,71.50
2022-08-26T01:24:38.167Z,71.20
2022-08-26T01:26:20.053Z,71.00
2022-08-26T01:27:53.400Z,70.80
2022-08-26T01:29:25.583Z,70.90
2022-08-26T01:31:01.408Z,70.70
2022-08-26T01:32:36.406Z,70.70
2022-08-26T01:34:24.877Z,70.70
2022-08-26T01:35:57.060Z,70.30
2022-08-26T01:37:34.643Z,70.30
2022-08-26T01:39:07.767Z,70.50
2022-08-26T01:40:43.449Z,70.30
2022-08-26T01:42:19.015Z,70.60
2022-08-26T01:43:54.600Z,70.70
2022-08-26T01:45:30.579Z,70.80
2022-08-26T01:47:05.009Z,70.80
2022-08-26T01:48:42.541Z,70.50
2022-08-26T01:50:28.230Z,70.50
2022-08-26T01:52:05.372Z,70.60
2022-08-26T01:53:39.018Z,70.50
2022-08-26T01:55:15.757Z,70.50
2022-08-26T01:57:05.192Z,70.10
2022-08-26T01:58:45.162Z,70.30
2022-08-26T02:00:17.787Z,70.30
2022-08-26T02:01:50.190Z,70.10
2022-08-26T02:03:26.920Z,70.20
2022-08-26T02:05:04.367Z,70.10
2022-08-26T02:06:38.883Z,70.20
2022-08-26T02:08:13.273Z,70.00
2022-08-26T02:09:46.311Z,69.90
2022-08-26T02:11:18.830Z,69.90
2022-08-26T02:12:50.971Z,70.00
2022-08-26T02:14:27.975Z,69.90
2022-08-26T02:16:03.854Z,70.00
2022-08-26T02:17:42.799Z,70.20
2022-08-26T02:19:18.963Z,69.80
2022-08-26T02:20:54.426Z,69.90
2022-08-26T02:22:28.552Z,70.00
2022-08-26T02:24:10.128Z,70.00
2022-08-26T02:25:52.272Z,69.80
2022-08-26T02:27:32.046Z,69.90
2022-08-26T02:29:35.578Z,70.00
2022-08-26T02:31:08.233Z,70.20
2022-08-26T02:32:42.614Z,70.30
2022-08-26T02:34:37.008Z,70.10
2022-08-26T02:36:09.195Z,70.00
2022-08-26T02:37:44.234Z,70.20
2022-08-26T02:39:22.377Z,69.80
2022-08-26T02:40:54.939Z,70.00
2022-08-26T02:42:27.275Z,70.10
2022-08-26T02:43:59.997Z,70.00
2022-08-26T02:45:33.384Z,69.50
2022-08-26T02:47:07.809Z,70.00
2022-08-26T02:48:40.060Z,70.00
2022-08-26T02:50:12.290Z,70.20
2022-08-26T02:51:45.120Z,69.60
2022-08-26T02:53:24.489Z,70.70
2022-08-26T02:54:57.221Z,70.10
2022-08-26T02:56:29.391Z,70.30
2022-08-26T02:58:03.324Z,70.10
2022-08-26T02:59:36.190Z,70.20
2022-08-26T03:01:08.438Z,70.20
2022-08-26T03:02:41.063Z,70.20
2022-08-26T03:04:13.868Z,70.00
2022-08-26T03:05:46.011Z,70.20
2022-08-26T03:07:20.163Z,70.20
2022-08-26T03:08:53.032Z,70.50
2022-08-26T03:10:26.085Z,70.60
2022-08-26T03:11:58.971Z,70.70
2022-08-26T03:13:31.867Z,70.90
2022-08-26T03:15:15.957Z,70.40
2022-08-26T03:16:53.937Z,70.60
2022-08-26T03:18:26.436Z,70.90
2022-08-26T03:19:59.078Z,70.70
2022-08-26T03:21:31.974Z,71.20
2022-08-26T03:23:04.436Z,71.20
2022-08-26T03:24:36.815Z,71.20
2022-08-26T03:26:13.050Z,71.20
2022-08-26T03:27:45.111Z,71.50
2022-08-26T03:29:37.148Z,71.50
2022-08-26T03:31:11.126Z,71.30
2022-08-26T03:32:44.172Z,71.60
2022-08-26T03:34:18.465Z,71.50
2022-08-26T03:35:52.228Z,71.70
2022-08-26T03:37:24.400Z,71.80
2022-08-26T03:38:56.788Z,71.80
2022-08-26T03:40:29.344Z,71.90
2022-08-26T03:42:01.777Z,71.90
2022-08-26T03:43:33.851Z,72.00
2022-08-26T03:45:08.851Z,72.00
2022-08-26T03:46:41.105Z,72.20
2022-08-26T03:48:15.780Z,72.20
2022-08-26T03:49:48.303Z,72.10
2022-08-26T03:51:20.346Z,72.30
2022-08-26T03:52:55.295Z,72.20
2022-08-26T03:54:27.523Z,72.80
2022-08-26T03:55:59.623Z,72.70
2022-08-26T03:57:32.198Z,72.40
2022-08-26T03:59:05.470Z,72.50
2022-08-26T04:00:40.143Z,72.40
2022-08-26T04:02:12.194Z,72.40
2022-08-26T04:04:00.160Z,72.30
2022-08-26T04:05:32.940Z,72.00
2022-08-26T04:07:05.390Z,72.00
2022-08-26T04:08:38.314Z,72.10
2022-08-26T04:10:13.630Z,72.20
2022-08-26T04:11:50.668Z,71.90
2022-08-26T04:13:23.245Z,71.80
2022-08-26T04:14:55.598Z,71.50
2022-08-26T04:16:29.974Z,71.40
2022-08-26T04:18:02.259Z,70.90
2022-08-26T04:19:35.843Z,70.50
2022-08-26T04:21:09.055Z,70.40
2022-08-26T04:22:43.042Z,70.20
2022-08-26T04:24:16.505Z,69.80
2022-08-26T04:25:50.239Z,69.30
2022-08-26T04:27:22.651Z,69.20
2022-08-26T04:28:55.452Z,68.70
2022-08-26T04:30:28.223Z,68.50
2022-08-26T04:32:00.774Z,68.30
2022-08-26T04:33:33.175Z,67.80
2022-08-26T04:35:06.177Z,67.50
2022-08-26T04:36:38.569Z,67.40
2022-08-26T04:38:11.600Z,67.20
2022-08-26T04:39:44.988Z,67.20
2022-08-26T04:41:19.607Z,67.30
2022-08-26T04:42:51.701Z,67.10
2022-08-26T04:44:27.406Z,66.80
2022-08-26T04:46:04.470Z,66.20
2022-08-26T04:47:36.535Z,66.00
2022-08-26T04:49:08.855Z,65.90
2022-08-26T04:50:41.211Z,65.30
2022-08-26T04:52:15.378Z,65.40
2022-08-26T04:53:48.203Z,65.50
2022-08-26T04:55:38.220Z,65.50
2022-08-26T04:57:12.360Z,65.50
2022-08-26T04:58:44.886Z,65.30
2022-08-26T05:00:17.353Z,65.50
2022-08-26T05:01:56.385Z,65.30
2022-08-26T05:03:30.492Z,65.10
2022-08-26T05:05:05.263Z,64.70
2022-08-26T05:06:38.451Z,64.30
2022-08-26T05:08:12.019Z,64.70
2022-08-26T05:09:45.201Z,64.00
2022-08-26T05:11:17.292Z,64.30
2022-08-26T05:12:50.485Z,63.40
2022-08-26T05:14:23.380Z,63.70
2022-08-26T05:16:01.133Z,63.30
2022-08-26T05:17:33.443Z,64.00
2022-08-26T05:19:06.875Z,63.20
2022-08-26T05:20:43.054Z,63.10
2022-08-26T05:22:15.502Z,63.50
2022-08-26T05:23:51.631Z,63.50
2022-08-26T05:25:24.006Z,62.20
2022-08-26T05:26:59.613Z,62.80
2022-08-26T05:28:32.287Z,62.50
2022-08-26T05:30:06.510Z,62.50
2022-08-26T05:31:38.802Z,62.10
2022-08-26T05:33:12.123Z,61.70
2022-08-26T05:34:44.900Z,62.10
2022-08-26T05:36:21.861Z,61.20
2022-08-26T05:37:53.934Z,62.20
2022-08-26T05:39:26.078Z,62.20
2022-08-26T05:41:00.118Z,62.70
2022-08-26T05:42:32.637Z,61.40
2022-08-26T05:44:08.075Z,62.30
2022-08-26T05:45:49.523Z,62.60
2022-08-26T05:47:22.018Z,62.20
2022-08-26T05:48:57.038Z,62.10
2022-08-26T05:50:29.092Z,62.20
2022-08-26T05:52:01.171Z,61.70
2022-08-26T05:53:33.735Z,62.20
2022-08-26T05:55:06.788Z,61.80
2022-08-26T05:56:39.555Z,61.20
2022-08-26T05:58:12.661Z,61.70
2022-08-26T05:59:45.172Z,62.10
2022-08-26T06:01:21.479Z,61.50
2022-08-26T06:02:53.721Z,61.80
2022-08-26T06:04:27.503Z,60.40
2022-08-26T06:06:11.079Z,61.80
2022-08-26T06:08:01.991Z,61.30
2022-08-26T06:09:36.890Z,61.40
2022-08-26T06:11:18.544Z,61.50
2022-08-26T06:12:51.138Z,62.50
2022-08-26T06:14:23.223Z,61.70
2022-08-26T06:15:56.742Z,61.50
2022-08-26T06:17:29.762Z,61.40
2022-08-26T06:19:10.433Z,62.00
2022-08-26T06:20:56.924Z,59.60
2022-08-26T06:22:48.126Z,59.50
2022-08-26T06:24:38.953Z,60.50
2022-08-26T06:26:14.128Z,60.00
2022-08-26T06:27:46.294Z,59.90
2022-08-26T06:29:24.321Z,60.50
2022-08-26T06:30:57.274Z,60.80
2022-08-26T06:32:30.738Z,60.30
2022-08-26T06:34:09.849Z,60.90
2022-08-26T06:35:43.298Z,60.90
2022-08-26T06:37:15.676Z,60.60
2022-08-26T06:38:49.823Z,61.70
2022-08-26T06:40:23.628Z,59.90
2022-08-26T06:41:57.063Z,59.70
2022-08-26T06:43:29.695Z,59.40
2022-08-26T06:45:01.798Z,59.90
2022-08-26T06:46:36.528Z,60.00
2022-08-26T06:48:08.663Z,60.50
2022-08-26T06:49:42.234Z,60.30
2022-08-26T06:51:23.679Z,61.40
2022-08-26T06:52:55.978Z,59.90
2022-08-26T06:54:31.725Z,60.00
2022-08-26T06:56:07.103Z,60.50
2022-08-26T06:57:41.480Z,59.00
2022-08-26T06:59:14.367Z,59.40
2022-08-26T07:00:47.179Z,58.90
2022-08-26T07:02:20.816Z,58.50
2022-08-26T07:03:58.194Z,59.30
2022-08-26T07:05:30.384Z,60.30
2022-08-26T07:07:02.639Z,59.40
2022-08-26T07:08:34.974Z,58.90
2022-08-26T07:10:08.573Z,59.90
2022-08-26T07:11:41.357Z,59.80
2022-08-26T07:13:13.571Z,60.20
2022-08-26T07:14:47.437Z,60.60
2022-08-26T07:16:20.759Z,60.00
2022-08-26T07:17:52.887Z,59.90
2022-08-26T07:19:30.641Z,59.90
2022-08-26T07:21:07.211Z,59.10
2022-08-26T07:22:39.588Z,60.90
2022-08-26T07:24:11.943Z,58.90
2022-08-26T07:25:44.390Z,59.00
2022-08-26T07:27:17.435Z,58.90
2022-08-26T07:28:53.445Z,58.70
2022-08-26T07:30:25.724Z,59.90
2022-08-26T07:31:58.265Z,59.70
2022-08-26T07:33:31.248Z,59.80
2022-08-26T07:35:05.635Z,60.70
2022-08-26T07:36:38.248Z,59.50
2022-08-26T07:38:11.308Z,58.80
2022-08-26T07:39:45.625Z,58.00
2022-08-26T07:41:22.784Z,57.80
2022-08-26T07:42:54.961Z,57.90
2022-08-26T07:44:27.811Z,58.10
2022-08-26T07:46:01.598Z,58.40
2022-08-26T07:47:33.734Z,58.60
2022-08-26T07:49:06.100Z,58.30
2022-08-26T07:50:49.155Z,59.70
2022-08-26T07:52:26.672Z,59.30
2022-08-26T07:53:59.740Z,60.60
2022-08-26T07:55:32.236Z,59.30
2022-08-26T07:57:08.323Z,57.70
2022-08-26T07:58:41.836Z,57.10
2022-08-26T08:00:16.935Z,57.90
2022-08-26T08:01:49.237Z,58.70
2022-08-26T08:03:21.400Z,59.30
2022-08-26T08:04:55.273Z,59.60
2022-08-26T08:06:28.189Z,59.40
2022-08-26T08:08:26.306Z,57.10
2022-08-26T08:09:55.908Z,58.60
2022-08-26T08:11:30.999Z,58.40
2022-08-26T08:13:07.088Z,57.40
2022-08-26T08:14:45.248Z,57.50
2022-08-26T08:16:17.687Z,56.40
2022-08-26T08:17:51.653Z,56.90
2022-08-26T08:19:25.067Z,57.00
2022-08-26T08:21:21.081Z,58.00
2022-08-26T08:22:54.703Z,59.20
2022-08-26T08:24:26.843Z,58.60
2022-08-26T08:26:04.562Z,58.90
2022-08-26T08:27:38.509Z,57.60
2022-08-26T08:29:10.914Z,58.60
2022-08-26T08:30:43.206Z,56.50
2022-08-26T08:32:15.886Z,57.30
2022-08-26T08:33:48.436Z,56.50
2022-08-26T08:35:26.272Z,59.10
2022-08-26T08:36:58.696Z,57.70
2022-08-26T08:38:32.176Z,57.40
2022-08-26T08:40:05.463Z,56.90
2022-08-26T08:41:57.231Z,57.90
2022-08-26T08:43:38.593Z,58.80
2022-08-26T08:45:16.753Z,58.90
2022-08-26T08:46:54.719Z,57.50
2022-08-26T08:48:38.901Z,57.80
2022-08-26T08:50:14.562Z,57.30
2022-08-26T08:51:56.726Z,55.30
2022-08-26T08:53:37.519Z,56.50
2022-08-26T08:55:16.102Z,57.40
2022-08-26T08:56:53.177Z,56.20
2022-08-26T08:58:40.618Z,56.20
2022-08-26T09:00:30.224Z,57.10
2022-08-26T09:02:33.704Z,57.00
2022-08-26T09:04:09.387Z,56.10
2022-08-26T09:05:48.679Z,55.70
2022-08-26T09:07:36.306Z,55.30
2022-08-26T09:09:15.271Z,53.60
2022-08-26T09:11:00.442Z,54.40
2022-08-26T09:12:34.638Z,54.30
2022-08-26T09:14:12.218Z,51.50
2022-08-26T09:16:10.068Z,52.00
2022-08-26T09:18:15.551Z,52.10
2022-08-26T09:20:02.794Z,52.40
2022-08-26T09:21:34.905Z,53.30
2022-08-26T09:23:10.673Z,53.00
2022-08-26T09:24:48.204Z,52.10
2022-08-26T09:26:28.748Z,51.40
2022-08-26T09:28:01.974Z,52.60
2022-08-26T09:29:43.385Z,53.30
2022-08-26T09:31:27.876Z,52.30
2022-08-26T09:33:11.001Z,52.30
2022-08-26T09:35:02.186Z,51.40
2022-08-26T09:36:41.372Z,52.10
2022-08-26T09:38:26.895Z,50.80
2022-08-26T09:40:20.986Z,51.60
2022-08-26T09:42:10.742Z,51.30
2022-08-26T09:44:07.987Z,50.80
2022-08-26T09:45:59.267Z,49.90
2022-08-26T09:47:33.900Z,50.80
2022-08-26T09:49:26.866Z,50.80
2022-08-26T09:51:23.699Z,50.20
2022-08-26T09:53:14.522Z,48.60
2022-08-26T09:55:17.897Z,48.40
2022-08-26T09:56:50.190Z,48.90
2022-08-26T09:58:37.915Z,48.80
2022-08-26T10:00:38.469Z,50.00
2022-08-26T10:02:25.464Z,50.00
2022-08-26T10:04:07.460Z,47.80
2022-08-26T10:05:54.273Z,48.00
2022-08-26T10:07:42.219Z,49.90
2022-08-26T10:09:18.159Z,49.80
2022-08-26T10:10:53.171Z,49.20
2022-08-26T10:12:26.179Z,48.30
2022-08-26T10:14:04.545Z,47.80
2022-08-26T10:15:50.552Z,49.60
2022-08-26T10:17:29.178Z,50.10
2022-08-26T10:19:10.275Z,50.40
2022-08-26T10:20:55.115Z,47.90
2022-08-26T10:22:55.298Z,49.40
2022-08-26T10:24:38.129Z,49.10
2022-08-26T10:26:55.198Z,48.70
2022-08-26T10:28:40.511Z,50.80
2022-08-26T10:30:18.785Z,50.00
2022-08-26T10:32:02.416Z,50.10
2022-08-26T10:33:38.674Z,49.70
2022-08-26T10:35:14.520Z,48.20
2022-08-26T10:37:14.443Z,48.00
2022-08-26T10:38:48.273Z,49.30
2022-08-26T10:40:27.309Z,49.10
2022-08-26T10:42:07.235Z,48.30
2022-08-26T10:43:47.823Z,48.10
2022-08-26T10:45:25.352Z,47.60
2022-08-26T10:47:03.486Z,47.40
2022-08-26T10:48:49.932Z,48.30
2022-08-26T10:50:28.341Z,47.40
2022-08-26T10:52:32.743Z,49.60
2022-08-26T10:54:13.424Z,47.50
2022-08-26T10:56:03.075Z,47.70
2022-08-26T10:57:46.525Z,48.30
2022-08-26T11:00:00.846Z,47.80
2022-08-26T11:02:07.116Z,47.90
2022-08-26T11:03:58.896Z,46.80
2022-08-26T11:05:31.504Z,46.20
2022-08-26T11:07:28.187Z,48.10
2022-08-26T11:09:06.342Z,49.30
2022-08-26T11:10:57.987Z,47.40
2022-08-26T11:12:37.591Z,47.20
2022-08-26T11:14:31.428Z,48.00
2022-08-26T11:16:33.940Z,48.10
2022-08-26T11:18:37.793Z,49.20
2022-08-26T11:20:31.125Z,51.00
2022-08-26T11:22:27.833Z,48.60
2022-08-26T11:23:59.915Z,47.70
2022-08-26T11:25:31.967Z,48.40
2022-08-26T11:27:04.880Z,48.10
2022-08-26T11:28:44.866Z,48.30
2022-08-26T11:30:18.534Z,47.60
2022-08-26T11:31:54.544Z,47.80
2022-08-26T11:33:51.021Z,48.60
2022-08-26T11:35:24.225Z,48.10
2022-08-26T11:36:57.866Z,48.00
2022-08-26T11:38:32.398Z,48.40
2022-08-26T11:40:09.294Z,47.80
2022-08-26T11:41:47.031Z,48.10
2022-08-26T11:43:23.547Z,47.50
2022-08-26T11:44:58.230Z,49.10
2022-08-26T11:46:35.738Z,49.40
2022-08-26T11:48:19.795Z,46.80
2022-08-26T11:50:16.957Z,47.00
2022-08-26T11:51:49.420Z,47.20
2022-08-26T11:53:22.986Z,48.20
2022-08-26T11:55:02.490Z,49.50
2022-08-26T11:56:36.481Z,48.60
2022-08-26T11:58:13.194Z,46.70
2022-08-26T11:59:46.564Z,46.60
2022-08-26T12:01:31.299Z,47.20
2022-08-26T12:03:07.478Z,48.30
2022-08-26T12:04:42.469Z,49.10
2022-08-26T12:06:32.867Z,46.90
2022-08-26T12:08:12.839Z,48.10
2022-08-26T12:10:25.031Z,46.70
2022-08-26T12:12:23.455Z,48.20
2022-08-26T12:13:57.546Z,49.40
2022-08-26T12:15:32.361Z,47.30
2022-08-26T12:17:13.492Z,47.40
2022-08-26T12:18:45.712Z,47.90
2022-08-26T12:20:48.554Z,46.90
2022-08-26T12:22:26.242Z,47.30
2022-08-26T12:24:00.642Z,47.00
2022-08-26T12:25:36.219Z,46.80
2022-08-26T12:27:30.313Z,46.60
2022-08-26T12:29:20.017Z,47.90
2022-08-26T12:31:04.275Z,48.30
2022-08-26T12:32:57.684Z,48.00
2022-08-26T12:34:31.585Z,46.70
2022-08-26T12:36:06.364Z,47.40
2022-08-26T12:37:46.065Z,49.10
2022-08-26T12:39:39.311Z,48.20
2022-08-26T12:41:11.994Z,47.40
2022-08-26T12:42:44.069Z,50.10
2022-08-26T12:44:33.210Z,48.00
2022-08-26T12:46:06.673Z,46.80
2022-08-26T12:47:44.143Z,47.50
2022-08-26T12:49:18.790Z,47.50
2022-08-26T12:50:52.214Z,47.60
2022-08-26T12:52:30.249Z,48.40
2022-08-26T12:54:06.748Z,48.70
2022-08-26T12:55:43.864Z,48.80
2022-08-26T12:57:15.954Z,48.40
2022-08-26T12:59:26.813Z,48.80
2022-08-26T13:01:05.153Z,49.30
2022-08-26T13:02:39.313Z,49.90
2022-08-26T13:04:33.510Z,50.10
2022-08-26T13:06:29.801Z,50.90
2022-08-26T13:08:11.011Z,50.00
2022-08-26T13:09:43.167Z,48.90
2022-08-26T13:11:20.627Z,49.30
2022-08-26T13:12:52.902Z,47.80
2022-08-26T13:14:25.047Z,49.20
2022-08-26T13:15:57.264Z,46.90
2022-08-26T13:17:30.830Z,48.00
2022-08-26T13:19:10.664Z,48.80
2022-08-26T13:20:44.210Z,48.70
2022-08-26T13:22:22.454Z,48.70
2022-08-26T13:23:55.670Z,48.90
2022-08-26T13:25:27.871Z,48.80
2022-08-26T13:27:00.975Z,48.30
2022-08-26T13:28:33.099Z,48.90
2022-08-26T13:30:05.807Z,49.20
2022-08-26T13:31:41.888Z,49.30
2022-08-26T13:33:16.734Z,50.10
2022-08-26T13:34:53.465Z,49.80
2022-08-26T13:36:26.085Z,49.20
2022-08-26T13:37:58.941Z,49.40
2022-08-26T13:39:31.112Z,49.80
2022-08-26T13:41:04.796Z,51.10
2022-08-26T13:42:37.422Z,50.00
2022-08-26T13:44:21.846Z,51.20
2022-08-26T13:45:54.403Z,50.60
2022-08-26T13:47:27.150Z,50.30
2022-08-26T13:49:00.144Z,49.60
2022-08-26T13:50:33.779Z,51.10
2022-08-26T13:52:05.975Z,49.70
2022-08-26T13:53:38.238Z,50.00
2022-08-26T13:55:13.878Z,50.60
2022-08-26T13:56:45.999Z,50.90
2022-08-26T13:58:18.326Z,51.40
2022-08-26T13:59:53.979Z,51.10
2022-08-26T14:01:27.803Z,50.40
2022-08-26T14:03:00.921Z,51.30
2022-08-26T14:04:33.136Z,51.40
2022-08-26T14:06:05.422Z,52.40
2022-08-26T14:07:37.959Z,52.60
2022-08-26T14:09:11.606Z,51.80
2022-08-26T14:10:44.244Z,52.00
2022-08-26T14:12:17.142Z,51.60
2022-08-26T14:13:50.431Z,51.70
2022-08-26T14:15:23.011Z,52.90
2022-08-26T14:16:59.569Z,51.90
2022-08-26T14:18:37.351Z,51.50
2022-08-26T14:20:21.019Z,51.10
2022-08-26T14:21:53.197Z,50.70
2022-08-26T14:23:26.205Z,51.20
2022-08-26T14:24:59.027Z,52.20
2022-08-26T14:26:31.679Z,53.40
2022-08-26T14:28:04.199Z,53.70
2022-08-26T14:29:36.438Z,52.40
2022-08-26T14:31:08.933Z,52.30
2022-08-26T14:32:45.759Z,51.90
2022-08-26T14:34:18.041Z,51.80
2022-08-26T14:35:50.261Z,50.90
2022-08-26T14:37:22.469Z,51.60
2022-08-26T14:38:56.333Z,51.50
2022-08-26T14:40:31.216Z,51.50
2022-08-26T14:42:07.030Z,51.60
2022-08-26T14:43:45.933Z,51.80
2022-08-26T14:45:24.083Z,52.70
2022-08-26T14:46:56.247Z,53.20
2022-08-26T14:48:28.512Z,53.00
2022-08-26T14:50:01.922Z,53.90
2022-08-26T14:51:35.010Z,52.70
2022-08-26T14:53:25.541Z,52.10
2022-08-26T14:54:57.663Z,53.40
2022-08-26T14:56:31.051Z,53.60
2022-08-26T14:58:03.522Z,53.60
2022-08-26T14:59:41.616Z,53.50
2022-08-26T15:01:14.004Z,54.50
2022-08-26T15:02:46.615Z,54.30
2022-08-26T15:04:20.042Z,52.60
2022-08-26T15:05:52.371Z,53.10
2022-08-26T15:07:24.483Z,53.60
2022-08-26T15:08:56.671Z,54.10
2022-08-26T15:10:29.039Z,54.00
2022-08-26T15:12:01.486Z,55.00
2022-08-26T15:13:33.718Z,55.20
2022-08-26T15:15:07.705Z,54.40
2022-08-26T15:16:40.215Z,54.10
2022-08-26T15:18:12.529Z,54.20
2022-08-26T15:19:44.634Z,54.50
2022-08-26T15:21:17.801Z,55.30
2022-08-26T15:22:50.182Z,55.10
2022-08-26T15:24:26.327Z,53.70
2022-08-26T15:25:58.550Z,53.50
2022-08-26T15:27:31.220Z,53.30
2022-08-26T15:29:05.140Z,53.90
2022-08-26T15:30:37.976Z,54.00
2022-08-26T15:32:10.101Z,53.80
2022-08-26T15:33:42.749Z,53.90
2022-08-26T15:35:15.312Z,54.40
2022-08-26T15:36:48.014Z,54.50
2022-08-26T15:38:20.134Z,54.50
2022-08-26T15:39:52.934Z,54.80
2022-08-26T15:41:26.089Z,55.20
2022-08-26T15:43:17.842Z,55.10
2022-08-26T15:44:52.261Z,55.20
2022-08-26T15:46:24.841Z,56.50
2022-08-26T15:48:01.225Z,55.70
2022-08-26T15:49:43.363Z,54.80
2022-08-26T15:51:31.049Z,54.90
2022-08-26T15:53:05.045Z,55.40
2022-08-26T15:54:37.461Z,55.70
2022-08-26T15:56:09.550Z,55.40
2022-08-26T15:57:42.657Z,56.10
2022-08-26T15:59:17.786Z,55.70
2022-08-26T16:00:50.567Z,55.40
2022-08-26T16:02:22.741Z,56.20
2022-08-26T16:03:55.907Z,55.90
2022-08-26T16:05:28.331Z,56.40
2022-08-26T16:07:00.986Z,56.60
2022-08-26T16:08:36.492Z,56.70
2022-08-26T16:10:09.311Z,56.10
2022-08-26T16:11:42.240Z,55.80
2022-08-26T16:13:15.691Z,56.50
2022-08-26T16:14:48.212Z,56.10
2022-08-26T16:16:24.961Z,56.90
2022-08-26T16:17:59.377Z,56.40
2022-08-26T16:19:31.498Z,56.80
2022-08-26T16:21:13.423Z,56.00
2022-08-26T16:22:46.335Z,56.30
2022-08-26T16:24:24.820Z,56.70
2022-08-26T16:25:58.322Z,55.80
2022-08-26T16:27:32.431Z,56.60
2022-08-26T16:29:08.704Z,56.90
2022-08-26T16:30:42.436Z,56.90
2022-08-26T16:32:14.534Z,57.30
2022-08-26T16:33:47.023Z,57.10
2022-08-26T16:35:19.066Z,57.00
2022-08-26T16:36:51.763Z,57.60
2022-08-26T16:38:24.823Z,57.50
2022-08-26T16:39:57.105Z,57.90
2022-08-26T16:41:31.314Z,58.00
2022-08-26T16:43:03.814Z,58.30
2022-08-26T16:44:44.359Z,58.50
2022-08-26T16:46:16.650Z,58.70
2022-08-26T16:47:49.942Z,59.40
2022-08-26T16:49:22.426Z,59.50
2022-08-26T16:50:55.686Z,59.30
2022-08-26T16:52:30.168Z,59.60
2022-08-26T16:54:05.334Z,60.10
2022-08-26T16:55:39.327Z,60.60
2022-08-26T16:57:13.044Z,60.20
2022-08-26T16:58:48.186Z,59.50
2022-08-26T17:00:30.929Z,60.10
2022-08-26T17:02:03.353Z,60.20
2022-08-26T17:03:35.699Z,59.70
2022-08-26T17:05:09.350Z,59.80
2022-08-26T17:06:41.573Z,59.90
2022-08-26T17:08:24.219Z,60.20
2022-08-26T17:10:00.682Z,60.10
2022-08-26T17:11:33.227Z,59.90
2022-08-26T17:13:05.440Z,60.70
2022-08-26T17:14:37.833Z,60.60
2022-08-26T17:16:12.639Z,60.60
2022-08-26T17:17:44.870Z,60.90
2022-08-26T17:19:19.203Z,60.80
2022-08-26T17:20:52.643Z,61.10
2022-08-26T17:22:24.795Z,60.80
2022-08-26T17:23:57.029Z,61.50
2022-08-26T17:25:31.808Z,61.40
2022-08-26T17:27:05.026Z,61.50
2022-08-26T17:28:37.071Z,61.50
2022-08-26T17:30:10.247Z,61.30
2022-08-26T17:31:43.592Z,61.90
2022-08-26T17:33:17.124Z,61.10
2022-08-26T17:34:54.035Z,61.70
2022-08-26T17:36:27.957Z,62.10
2022-08-26T17:38:00.908Z,62.20
2022-08-26T17:39:33.164Z,62.20
2022-08-26T17:41:13.623Z,62.70
2022-08-26T17:42:46.312Z,62.80
2022-08-26T17:44:18.758Z,62.90
2022-08-26T17:45:51.427Z,63.10
2022-08-26T17:47:23.553Z,62.80
2022-08-26T17:48:55.876Z,62.70
2022-08-26T17:50:28.186Z,62.70
2022-08-26T17:52:01.564Z,62.80
2022-08-26T17:53:34.322Z,62.70
2022-08-26T17:55:08.828Z,62.40
2022-08-26T17:56:40.984Z,62.50
2022-08-26T17:58:14.811Z,62.50
2022-08-26T17:59:47.002Z,62.70
2022-08-26T18:01:22.109Z,62.80
2022-08-26T18:02:55.710Z,62.80
2022-08-26T18:04:28.145Z,63.10
2022-08-26T18:06:00.730Z,63.00
2022-08-26T18:07:33.531Z,63.20
2022-08-26T18:09:13.456Z,63.10
2022-08-26T18:10:46.635Z,62.80
2022-08-26T18:12:18.754Z,62.90
2022-08-26T18:13:51.617Z,63.10
2022-08-26T18:15:23.844Z,63.10
2022-08-26T18:16:56.281Z,63.10
2022-08-26T18:18:28.373Z,63.80
2022-08-26T18:20:00.444Z,63.40
2022-08-26T18:21:33.052Z,63.10
2022-08-26T18:23:05.866Z,63.40
2022-08-26T18:24:38.331Z,63.10
2022-08-26T18:26:19.382Z,63.70
2022-08-26T18:27:51.651Z,63.80
2022-08-26T18:29:25.468Z,63.70
2022-08-26T18:30:57.694Z,63.20
2022-08-26T18:32:30.084Z,63.50
2022-08-26T18:34:03.067Z,62.90
2022-08-26T18:35:43.062Z,63.10
2022-08-26T18:37:15.203Z,63.40
2022-08-26T18:38:48.418Z,63.50
2022-08-26T18:40:22.788Z,63.60
2022-08-26T18:41:56.167Z,63.60
2022-08-26T18:43:28.218Z,63.50
2022-08-26T18:45:00.286Z,63.30
2022-08-26T18:46:32.382Z,63.80
2022-08-26T18:48:04.937Z,63.90
2022-08-26T18:49:37.466Z,63.60
2022-08-26T18:51:17.103Z,63.40
2022-08-26T18:52:49.535Z,63.50
2022-08-26T18:54:22.396Z,63.80
2022-08-26T18:55:54.479Z,64.10
2022-08-26T18:57:26.619Z,64.30
2022-08-26T18:59:01.530Z,64.30
2022-08-26T19:00:34.015Z,64.50
2022-08-26T19:02:07.840Z,64.70
2022-08-26T19:03:40.447Z,64.80
2022-08-26T19:05:14.257Z,64.70
2022-08-26T19:06:49.255Z,64.80
2022-08-26T19:08:21.526Z,64.70
2022-08-26T19:09:54.126Z,64.40
2022-08-26T19:11:31.319Z,64.30
2022-08-26T19:13:09.416Z,64.30
2022-08-26T19:14:42.410Z,64.00
2022-08-26T19:16:19.113Z,64.10
2022-08-26T19:17:51.283Z,63.90
2022-08-26T19:19:24.112Z,64.20
2022-08-26T19:20:56.264Z,63.50
2022-08-26T19:22:28.307Z,63.60
2022-08-26T19:24:03.145Z,63.60
2022-08-26T19:25:47.146Z,63.00
2022-08-26T19:27:19.411Z,63.00
2022-08-26T19:28:51.766Z,62.70
2022-08-26T19:30:24.073Z,63.10
2022-08-26T19:32:01.874Z,63.00
2022-08-26T19:33:34.352Z,63.20
2022-08-26T19:35:08.358Z,63.60
2022-08-26T19:36:43.062Z,63.70
2022-08-26T19:38:19.066Z,63.80
2022-08-26T19:39:51.401Z,63.50
2022-08-26T19:41:36.646Z,63.80
2022-08-26T19:43:10.065Z,64.00
2022-08-26T19:45:03.297Z,64.20
2022-08-26T19:46:36.448Z,64.30
2022-08-26T19:48:08.683Z,64.30
2022-08-26T19:49:40.955Z,64.60
2022-08-26T19:51:21.620Z,64.70
2022-08-26T19:52:55.043Z,65.00
2022-08-26T19:54:27.267Z,65.10
2022-08-26T19:55:59.315Z,65.00
2022-08-26T19:57:31.616Z,65.20
2022-08-26T19:59:03.751Z,65.20
2022-08-26T20:00:39.703Z,65.10
2022-08-26T20:02:12.013Z,65.50
2022-08-26T20:03:45.205Z,65.50
2022-08-26T20:05:20.464Z,65.40
2022-08-26T20:06:55.752Z,65.70
2022-08-26T20:08:33.856Z,65.60
2022-08-26T20:10:09.869Z,65.50
2022-08-26T20:11:41.982Z,65.90
2022-08-26T20:13:14.268Z,65.60
2022-08-26T20:14:46.786Z,65.90
2022-08-26T20:16:19.430Z,65.80
2022-08-26T20:17:52.335Z,65.90
2022-08-26T20:19:42.951Z,66.00
2022-08-26T20:21:27.013Z,66.10
2022-08-26T20:22:59.477Z,66.40
2022-08-26T20:24:32.634Z,66.30
2022-08-26T20:26:04.852Z,67.20
2022-08-26T20:27:38.372Z,66.60
2022-08-26T20:29:13.602Z,66.70
2022-08-26T20:30:45.786Z,66.90
2022-08-26T20:32:18.043Z,66.80
2022-08-26T20:33:51.633Z,67.10
2022-08-26T20:35:24.198Z,67.10
2022-08-26T20:36:56.605Z,67.30
2022-08-26T20:38:28.726Z,67.30
2022-08-26T20:40:01.191Z,67.50
2022-08-26T20:41:33.789Z,67.60
2022-08-26T20:43:06.449Z,67.70